Time;durP1;ratioP1;P1;durP2;ratioP2;P2;SDS_P1;SDS_P2;PMS_P1;PMS_P2;Temp;Humidity;BMP_temperature;BMP_pressure;BME280_temperature;BME280_humidity;BME280_pressure;Samples;Min_cycle;Max_cycle;Signal;HPM_P1;HPM_P2
2022/10/08 00:02:22;;;;;;;3.80;1.10;;;14.80;70.40;;;;;;5008633;28;20026;-82
2022/10/08 00:04:48;;;;;;;3.13;1.00;;;14.90;70.80;;;;;;5008061;28;20662;-82
2022/10/08 00:07:13;;;;;;;2.95;1.10;;;14.90;70.70;;;;;;5001155;28;20095;-82
2022/10/08 00:09:39;;;;;;;2.63;0.93;;;15.00;70.80;;;;;;5004898;28;20489;-81
2022/10/08 00:12:05;;;;;;;2.50;1.00;;;15.10;71.10;;;;;;5017087;28;20022;-81
2022/10/08 00:14:30;;;;;;;4.87;1.00;;;15.10;71.00;;;;;;4999222;28;20394;-82
2022/10/08 00:16:56;;;;;;;3.43;0.90;;;15.20;71.20;;;;;;5007302;28;20106;-83
2022/10/08 00:19:21;;;;;;;3.40;0.90;;;15.20;71.40;;;;;;5010833;28;20693;-82
2022/10/08 00:21:52;;;;;;;2.47;1.00;;;15.30;71.10;;;;;;5008129;28;20095;-83
2022/10/08 00:24:17;;;;;;;2.95;0.90;;;15.30;71.10;;;;;;5005393;28;20006;-82
2022/10/08 00:26:43;;;;;;;4.25;0.73;;;15.40;71.20;;;;;;5011811;28;20041;-82
2022/10/08 00:29:12;;;;;;;3.40;0.80;;;15.40;71.30;;;;;;5009232;28;20378;-82
2022/10/08 00:31:40;;;;;;;2.80;1.00;;;15.40;71.40;;;;;;4972182;28;20741;-82
2022/10/08 00:34:08;;;;;;;2.50;1.00;;;15.40;71.30;;;;;;5010868;28;20021;-81
2022/10/08 00:36:36;;;;;;;2.08;0.90;;;15.40;71.10;;;;;;4997928;28;20033;-81
2022/10/08 00:39:07;;;;;;;1.38;0.80;;;15.50;71.40;;;;;;5002367;28;20215;-81
2022/10/08 00:41:36;;;;;;;4.40;1.00;;;15.50;71.80;;;;;;4992065;28;20029;-82
2022/10/08 00:44:02;;;;;;;3.63;0.70;;;15.50;71.60;;;;;;4999721;28;20659;-83
2022/10/08 00:46:35;;;;;;;2.85;0.90;;;15.50;71.60;;;;;;4973650;28;20226;-82
2022/10/08 00:49:05;;;;;;;2.72;1.00;;;15.50;71.90;;;;;;4997569;28;20037;-82
2022/10/08 00:51:32;;;;;;;2.53;0.80;;;15.60;72.00;;;;;;4990478;28;20563;-82
2022/10/08 00:54:03;;;;;;;5.15;1.10;;;15.60;72.00;;;;;;5015524;28;20414;-81
2022/10/08 00:56:33;;;;;;;2.17;0.83;;;15.60;72.00;;;;;;5009988;28;20042;-81
2022/10/08 00:58:59;;;;;;;2.58;0.80;;;15.60;72.00;;;;;;5018189;28;20106;-82
2022/10/08 01:01:24;;;;;;;3.60;0.85;;;15.70;72.00;;;;;;5002812;28;20047;-82
2022/10/08 01:03:50;;;;;;;2.73;1.00;;;15.60;72.00;;;;;;5001745;28;20589;-82
2022/10/08 01:06:52;;;;;;;3.05;0.80;;;15.70;72.10;;;;;;5012573;28;20032;-82
2022/10/08 01:09:20;;;;;;;2.97;0.90;;;15.70;72.70;;;;;;4976158;28;20034;-83
2022/10/08 01:12:10;;;;;;;4.45;1.00;;;15.70;72.50;;;;;;5004023;28;20033;-81
2022/10/08 01:14:43;;;;;;;3.53;0.93;;;15.70;72.80;;;;;;5013293;28;20082;-81
2022/10/08 01:17:31;;;;;;;4.53;0.80;;;15.80;73.30;;;;;;4993550;28;20551;-83
2022/10/08 01:20:09;;;;;;;3.35;1.00;;;15.80;73.90;;;;;;5007872;28;20080;-84
2022/10/08 01:22:53;;;;;;;2.17;0.87;;;15.80;73.00;;;;;;5019168;28;20033;-81
2022/10/08 01:25:51;;;;;;;2.92;0.90;;;15.90;73.80;;;;;;5005691;28;20230;-84
2022/10/08 01:28:32;;;;;;;3.10;0.80;;;15.90;73.80;;;;;;4987706;28;20045;-82
2022/10/08 01:31:09;;;;;;;3.55;0.93;;;15.90;74.20;;;;;;5019777;28;20119;-81
2022/10/08 01:33:50;;;;;;;3.45;0.80;;;16.00;73.80;;;;;;4998043;28;20060;-82
2022/10/08 01:36:18;;;;;;;2.90;0.77;;;16.00;74.30;;;;;;5003067;28;20026;-81
2022/10/08 01:38:58;;;;;;;3.88;1.08;;;16.00;73.30;;;;;;5007641;28;20018;-81
2022/10/08 01:41:25;;;;;;;2.33;0.77;;;16.00;73.50;;;;;;5002903;28;20022;-81
2022/10/08 01:44:38;;;;;;;2.88;0.80;;;16.00;73.60;;;;;;5007554;28;20434;-82
2022/10/08 01:47:07;;;;;;;2.13;0.70;;;15.90;75.10;;;;;;5011389;28;20049;-81
2022/10/08 01:49:41;;;;;;;3.87;0.90;;;16.00;73.80;;;;;;4993346;28;20038;-80
2022/10/08 01:52:15;;;;;;;2.85;0.80;;;15.90;74.10;;;;;;5012767;28;20486;-81
2022/10/08 01:54:44;;;;;;;2.42;0.85;;;15.90;74.20;;;;;;5002072;28;20033;-82
2022/10/08 01:57:10;;;;;;;1.92;0.77;;;15.80;74.10;;;;;;5035842;28;20056;-82
2022/10/08 01:59:46;;;;;;;3.63;1.15;;;15.80;74.60;;;;;;5019234;28;20049;-83
2022/10/08 02:02:19;;;;;;;2.57;0.80;;;15.70;74.90;;;;;;5008665;28;20548;-81
2022/10/08 02:04:46;;;;;;;2.75;0.90;;;15.60;74.50;;;;;;4985639;28;20167;-82
2022/10/08 02:07:18;;;;;;;2.10;0.80;;;15.60;74.20;;;;;;5008152;28;20021;-82
2022/10/08 02:09:50;;;;;;;2.72;1.00;;;15.50;75.00;;;;;;4979011;28;20037;-82
2022/10/08 02:12:16;;;;;;;2.20;0.90;;;15.50;74.80;;;;;;5023627;28;20327;-80
2022/10/08 02:14:54;;;;;;;2.43;0.80;;;15.50;74.80;;;;;;5011063;28;20436;-82
2022/10/08 02:17:35;;;;;;;2.55;0.90;;;15.40;76.20;;;;;;5032630;28;20029;-81
2022/10/08 02:20:10;;;;;;;3.78;1.20;;;15.40;76.10;;;;;;4998777;28;21170;-82
2022/10/08 02:22:44;;;;;;;4.00;1.00;;;15.30;75.50;;;;;;5007561;28;20105;-81
2022/10/08 02:25:23;;;;;;;2.00;0.85;;;15.30;75.80;;;;;;5000118;28;20033;-83
2022/10/08 02:28:05;;;;;;;2.97;0.90;;;15.30;76.40;;;;;;5003847;28;20340;-82
2022/10/08 02:30:42;;;;;;;2.03;0.80;;;15.30;76.80;;;;;;5018851;28;20029;-83
2022/10/08 02:33:12;;;;;;;2.25;0.98;;;15.30;76.20;;;;;;5006703;28;20089;-81
2022/10/08 02:35:44;;;;;;;1.95;0.90;;;15.30;76.00;;;;;;5012789;28;20441;-82
2022/10/08 02:38:16;;;;;;;3.38;0.90;;;15.30;76.20;;;;;;5015333;28;20482;-82
2022/10/08 02:40:47;;;;;;;2.10;0.93;;;15.30;76.30;;;;;;4995341;28;20033;-82
2022/10/08 02:43:18;;;;;;;2.22;0.90;;;15.30;76.50;;;;;;5003930;28;20530;-82
2022/10/08 02:46:17;;;;;;;2.67;0.80;;;15.30;76.20;;;;;;5011404;28;20037;-81
2022/10/08 02:49:01;;;;;;;1.63;0.90;;;15.30;77.40;;;;;;4998622;28;20076;-82
2022/10/08 02:51:29;;;;;;;3.67;0.90;;;15.30;77.00;;;;;;5006616;28;20045;-82
2022/10/08 02:53:56;;;;;;;3.07;0.80;;;15.30;76.20;;;;;;4997006;28;20041;-83
2022/10/08 02:56:24;;;;;;;3.78;1.00;;;15.20;76.00;;;;;;4995198;28;20036;-82
2022/10/08 02:58:51;;;;;;;2.50;0.95;;;15.20;76.00;;;;;;5006925;28;20143;-82
2022/10/08 03:01:46;;;;;;;3.97;1.10;;;15.20;76.40;;;;;;5006563;28;20025;-81
2022/10/08 03:04:22;;;;;;;2.55;0.90;;;15.20;78.10;;;;;;4999951;28;20117;-82
2022/10/08 03:06:51;;;;;;;3.27;1.03;;;15.20;76.90;;;;;;5001868;28;20572;-83
2022/10/08 03:09:19;;;;;;;1.65;0.88;;;15.20;76.70;;;;;;5028771;28;20017;-82
2022/10/08 03:11:45;;;;;;;3.47;1.20;;;15.10;76.80;;;;;;5005916;28;20013;-82
2022/10/08 03:14:14;;;;;;;2.90;1.10;;;15.10;76.80;;;;;;5015047;28;20018;-82
2022/10/08 03:16:43;;;;;;;2.58;0.98;;;15.10;77.20;;;;;;5011598;28;20048;-82
2022/10/08 03:19:11;;;;;;;3.20;1.10;;;15.10;78.00;;;;;;5042584;28;20030;-82
2022/10/08 03:21:39;;;;;;;2.65;1.02;;;15.10;77.20;;;;;;4995351;28;20026;-82
2022/10/08 03:24:06;;;;;;;1.70;0.90;;;15.10;77.20;;;;;;5013876;28;20028;-81
2022/10/08 03:26:32;;;;;;;2.88;1.10;;;15.00;77.10;;;;;;5000950;28;20030;-82
2022/10/08 03:28:57;;;;;;;3.47;1.10;;;15.00;77.10;;;;;;5009392;28;20239;-81
2022/10/08 03:31:23;;;;;;;2.17;1.02;;;15.00;77.20;;;;;;4979618;28;20282;-82
2022/10/08 03:33:53;;;;;;;2.40;1.00;;;14.90;77.10;;;;;;5003724;28;20449;-80
2022/10/08 03:36:20;;;;;;;1.95;0.90;;;14.90;77.70;;;;;;4990304;28;20038;-82
2022/10/08 03:38:49;;;;;;;2.80;0.90;;;14.90;77.40;;;;;;5019191;28;20025;-81
2022/10/08 03:41:15;;;;;;;3.45;0.93;;;14.80;77.50;;;;;;4997910;28;20162;-81
2022/10/08 03:43:41;;;;;;;1.30;0.80;;;14.80;77.40;;;;;;5015113;28;20027;-82
2022/10/08 03:46:08;;;;;;;2.72;1.10;;;14.80;77.50;;;;;;5004855;28;20391;-82
2022/10/08 03:48:34;;;;;;;3.72;0.93;;;14.70;77.60;;;;;;5034554;28;20038;-82
2022/10/08 03:51:14;;;;;;;2.13;1.05;;;14.70;77.60;;;;;;5000714;28;20259;-82
2022/10/08 03:53:41;;;;;;;1.73;0.88;;;14.70;78.10;;;;;;5005347;28;21606;-82
2022/10/08 03:56:13;;;;;;;2.67;0.87;;;14.70;77.60;;;;;;5003071;28;20030;-81
2022/10/08 03:58:39;;;;;;;1.80;1.08;;;14.60;78.10;;;;;;5010578;28;20026;-82
2022/10/08 04:01:15;;;;;;;1.58;1.00;;;14.60;77.60;;;;;;5009580;28;20031;-82
2022/10/08 04:03:42;;;;;;;2.70;1.27;;;14.60;78.90;;;;;;5014502;28;20476;-82
2022/10/08 04:06:08;;;;;;;2.87;1.03;;;14.50;77.70;;;;;;5022822;28;20026;-82
2022/10/08 04:08:35;;;;;;;1.90;1.13;;;14.50;77.90;;;;;;4993983;28;20525;-81
2022/10/08 04:11:05;;;;;;;3.85;1.15;;;14.40;78.00;;;;;;5013390;28;20026;-82
2022/10/08 04:13:31;;;;;;;3.60;1.08;;;14.40;78.60;;;;;;4997770;28;20033;-81
2022/10/08 04:16:02;;;;;;;2.97;1.42;;;14.40;78.10;;;;;;5003345;28;20395;-82
2022/10/08 04:18:28;;;;;;;3.13;1.00;;;14.30;78.60;;;;;;5001676;28;20087;-82
2022/10/08 04:21:02;;;;;;;2.35;1.10;;;14.30;78.20;;;;;;5006070;28;20026;-82
2022/10/08 04:23:30;;;;;;;2.33;1.10;;;14.20;79.10;;;;;;4993501;28;20503;-82
2022/10/08 04:25:56;;;;;;;2.40;1.00;;;14.20;78.60;;;;;;5024467;28;20398;-82
2022/10/08 04:28:22;;;;;;;2.45;1.02;;;14.20;78.50;;;;;;5007000;28;20249;-82
2022/10/08 04:30:59;;;;;;;1.95;1.00;;;14.20;78.60;;;;;;4999331;28;20033;-81
2022/10/08 04:33:26;;;;;;;2.20;1.00;;;14.10;79.40;;;;;;5015775;28;20071;-82
2022/10/08 04:35:53;;;;;;;2.65;1.00;;;14.10;78.90;;;;;;5035089;28;20072;-82
2022/10/08 04:38:18;;;;;;;1.95;0.90;;;14.10;79.00;;;;;;5011311;28;20291;-82
2022/10/08 04:40:44;;;;;;;2.53;1.10;;;14.00;78.90;;;;;;4991055;28;20295;-82
2022/10/08 04:43:09;;;;;;;2.17;0.97;;;14.00;79.00;;;;;;5009929;28;20033;-82
2022/10/08 04:45:41;;;;;;;2.07;0.90;;;14.00;79.10;;;;;;4994003;28;20025;-82
2022/10/08 04:48:07;;;;;;;3.75;1.08;;;14.00;79.60;;;;;;5014856;28;20123;-82
2022/10/08 04:50:32;;;;;;;2.00;0.90;;;14.00;79.00;;;;;;4997906;28;20583;-82
2022/10/08 04:52:58;;;;;;;2.93;1.20;;;13.90;79.20;;;;;;5002157;28;20037;-82
2022/10/08 04:55:24;;;;;;;2.70;1.00;;;13.90;79.30;;;;;;4985015;28;20071;-82
2022/10/08 04:57:49;;;;;;;1.80;0.90;;;13.90;79.50;;;;;;5022130;28;20381;-82
2022/10/08 05:00:15;;;;;;;1.63;0.87;;;13.90;79.60;;;;;;5005105;28;20079;-82
2022/10/08 05:02:40;;;;;;;2.05;1.00;;;13.80;79.60;;;;;;4983427;28;20026;-82
2022/10/08 05:05:06;;;;;;;1.80;0.97;;;13.80;79.70;;;;;;5022371;28;20028;-82
2022/10/08 05:07:32;;;;;;;2.97;1.10;;;13.80;79.80;;;;;;4986490;28;20494;-82
2022/10/08 05:09:58;;;;;;;2.73;1.00;;;13.80;79.80;;;;;;4995631;28;20037;-82
2022/10/08 05:12:23;;;;;;;1.17;0.80;;;13.80;80.00;;;;;;4992318;28;20390;-82
2022/10/08 05:14:49;;;;;;;2.60;1.00;;;13.70;80.00;;;;;;5002018;28;20030;-81
2022/10/08 05:17:14;;;;;;;2.90;1.00;;;13.70;80.10;;;;;;5006720;28;20730;-82
2022/10/08 05:19:40;;;;;;;2.22;0.85;;;13.70;80.10;;;;;;5009065;28;20104;-82
2022/10/08 05:22:05;;;;;;;2.03;0.90;;;13.70;80.10;;;;;;5000561;28;20043;-82
2022/10/08 05:24:31;;;;;;;2.25;0.85;;;13.70;80.20;;;;;;5006887;28;20118;-82
2022/10/08 05:26:57;;;;;;;2.63;1.00;;;13.70;80.20;;;;;;4995492;28;20579;-82
2022/10/08 05:29:22;;;;;;;1.03;0.90;;;13.70;80.30;;;;;;5008930;28;20044;-83
2022/10/08 05:31:48;;;;;;;2.30;1.10;;;13.60;80.30;;;;;;4992519;28;20624;-82
2022/10/08 05:34:14;;;;;;;1.53;0.73;;;13.60;80.30;;;;;;5018977;28;20010;-82
2022/10/08 05:36:40;;;;;;;2.83;1.02;;;13.60;80.50;;;;;;5023094;28;20525;-83
2022/10/08 05:39:06;;;;;;;2.42;0.95;;;13.60;80.60;;;;;;4986160;28;20024;-82
2022/10/08 05:41:34;;;;;;;1.98;0.90;;;13.60;80.70;;;;;;5005123;28;20030;-81
2022/10/08 05:44:01;;;;;;;4.07;1.27;;;13.60;80.90;;;;;;4992004;28;20517;-83
2022/10/08 05:46:28;;;;;;;2.22;1.10;;;13.60;80.80;;;;;;5005449;28;20558;-83
2022/10/08 05:48:55;;;;;;;3.10;1.05;;;13.50;80.90;;;;;;4982676;28;20034;-81
2022/10/08 05:51:22;;;;;;;5.32;1.30;;;13.50;80.90;;;;;;5011172;28;20022;-82
2022/10/08 05:53:49;;;;;;;3.25;1.20;;;13.50;81.10;;;;;;4993051;28;20115;-82
2022/10/08 05:56:17;;;;;;;1.90;0.93;;;13.50;81.20;;;;;;4997031;28;20033;-82
2022/10/08 05:58:43;;;;;;;1.90;0.80;;;13.50;81.40;;;;;;4999440;28;20060;-82
2022/10/08 06:01:13;;;;;;;2.63;1.10;;;13.50;81.30;;;;;;4997646;28;20029;-82
2022/10/08 06:03:38;;;;;;;2.13;1.00;;;13.40;81.50;;;;;;5001176;28;20025;-83
2022/10/08 06:06:06;;;;;;;3.13;1.27;;;13.50;81.50;;;;;;5019715;28;20243;-82
2022/10/08 06:08:33;;;;;;;1.98;1.00;;;13.40;81.70;;;;;;5011998;28;20041;-82
2022/10/08 06:10:59;;;;;;;2.30;0.95;;;13.40;81.60;;;;;;4997275;28;20024;-83
2022/10/08 06:13:25;;;;;;;2.13;1.00;;;13.40;81.60;;;;;;4995544;28;20490;-82
2022/10/08 06:15:57;;;;;;;2.87;1.10;;;13.40;81.70;;;;;;5002753;28;20252;-82
2022/10/08 06:18:24;;;;;;;2.03;1.00;;;13.40;82.60;;;;;;5031060;28;20029;-82
2022/10/08 06:20:50;;;;;;;2.70;1.00;;;13.40;81.80;;;;;;5031114;28;20115;-83
2022/10/08 06:23:16;;;;;;;2.63;1.00;;;13.40;81.90;;;;;;4985226;28;20032;-82
2022/10/08 06:25:42;;;;;;;2.73;1.00;;;13.40;82.00;;;;;;4984460;28;20394;-82
2022/10/08 06:28:08;;;;;;;1.88;0.93;;;13.40;81.90;;;;;;4995480;28;20064;-82
2022/10/08 06:30:33;;;;;;;2.07;0.90;;;13.40;82.10;;;;;;4987579;28;20077;-83
2022/10/08 06:32:59;;;;;;;3.92;0.98;;;13.40;82.20;;;;;;5003802;28;20100;-82
2022/10/08 06:35:24;;;;;;;2.20;1.10;;;13.40;82.30;;;;;;5010971;28;20073;-82
2022/10/08 06:37:50;;;;;;;2.60;1.00;;;13.40;82.40;;;;;;5014037;28;20021;-81
2022/10/08 06:40:16;;;;;;;2.22;1.00;;;13.40;82.40;;;;;;4999121;28;20504;-83
2022/10/08 06:42:41;;;;;;;1.97;1.10;;;13.40;82.50;;;;;;4996179;28;20242;-82
2022/10/08 06:45:07;;;;;;;2.15;1.10;;;13.40;82.50;;;;;;4999438;28;20029;-83
2022/10/08 06:47:33;;;;;;;2.25;0.90;;;13.40;82.70;;;;;;5002939;28;20071;-83
2022/10/08 06:50:00;;;;;;;3.17;1.13;;;13.50;82.80;;;;;;5011402;28;20045;-82
2022/10/08 06:52:26;;;;;;;2.03;0.98;;;13.50;83.00;;;;;;5025098;28;20063;-82
2022/10/08 06:54:52;;;;;;;2.97;1.20;;;13.50;83.70;;;;;;5003952;28;20120;-83
2022/10/08 06:57:17;;;;;;;3.25;1.25;;;13.50;83.10;;;;;;4994461;28;20434;-83
2022/10/08 06:59:43;;;;;;;3.13;1.10;;;13.50;83.20;;;;;;4982644;28;20022;-82
2022/10/08 07:02:11;;;;;;;3.35;1.05;;;13.60;83.40;;;;;;5005263;28;20032;-82
2022/10/08 07:04:37;;;;;;;2.05;1.20;;;13.60;83.80;;;;;;4996950;28;20399;-81
2022/10/08 07:07:03;;;;;;;3.33;1.40;;;13.60;83.60;;;;;;5003679;28;20026;-82
2022/10/08 07:09:29;;;;;;;2.63;1.20;;;13.70;83.90;;;;;;5014855;28;20034;-83
2022/10/08 07:11:55;;;;;;;2.92;1.15;;;13.70;84.30;;;;;;5009219;28;20038;-82
2022/10/08 07:14:21;;;;;;;3.33;1.13;;;13.80;85.00;;;;;;4990904;28;20049;-82
2022/10/08 07:16:46;;;;;;;2.85;1.00;;;13.90;85.20;;;;;;4988929;28;20056;-81
2022/10/08 07:19:12;;;;;;;2.67;1.20;;;14.10;86.00;;;;;;5015739;28;20546;-83
2022/10/08 07:21:39;;;;;;;3.63;1.33;;;14.30;87.30;;;;;;4997483;28;20387;-82
2022/10/08 07:24:05;;;;;;;3.47;1.20;;;14.60;88.70;;;;;;4999466;28;20601;-81
2022/10/08 07:26:33;;;;;;;4.22;1.50;;;15.00;89.60;;;;;;5004492;28;20030;-83
2022/10/08 07:29:12;;;;;;;4.93;1.35;;;15.50;90.10;;;;;;4975688;28;20111;-81
2022/10/08 07:31:38;;;;;;;4.78;1.40;;;15.90;89.80;;;;;;4982341;28;20095;-81
2022/10/08 07:34:07;;;;;;;1.90;1.00;;;16.40;90.10;;;;;;4982102;28;20137;-81
2022/10/08 07:36:33;;;;;;;3.63;1.20;;;16.90;90.10;;;;;;5002874;28;20033;-81
2022/10/08 07:39:04;;;;;;;2.42;1.13;;;17.30;90.00;;;;;;5006218;28;20168;-81
2022/10/08 07:41:30;;;;;;;3.63;1.30;;;17.80;89.10;;;;;;5012095;28;20032;-82
2022/10/08 07:43:58;;;;;;;2.95;1.10;;;18.30;89.50;;;;;;4992201;28;20565;-81
2022/10/08 07:46:28;;;;;;;3.43;1.30;;;18.80;88.50;;;;;;4987413;28;20084;-81
2022/10/08 07:48:57;;;;;;;3.25;1.33;;;19.20;88.10;;;;;;5002539;28;20643;-81
2022/10/08 07:51:24;;;;;;;4.78;1.20;;;19.60;87.70;;;;;;5014911;28;20076;-83
2022/10/08 07:53:49;;;;;;;4.03;1.17;;;20.00;87.40;;;;;;5017299;28;20037;-82
2022/10/08 07:56:17;;;;;;;4.43;1.33;;;20.40;86.90;;;;;;5012582;28;20538;-81
2022/10/08 07:58:43;;;;;;;3.22;1.20;;;20.80;86.00;;;;;;4996306;28;20072;-81
2022/10/08 08:01:14;;;;;;;3.17;1.30;;;21.10;85.80;;;;;;4984924;28;20038;-81
2022/10/08 08:03:40;;;;;;;2.43;1.10;;;21.50;84.20;;;;;;5008128;28;21633;-80
2022/10/08 08:06:12;;;;;;;2.60;1.00;;;21.80;84.00;;;;;;5008900;28;20657;-81
2022/10/08 08:08:40;;;;;;;3.53;1.30;;;22.10;81.30;;;;;;5001784;28;20022;-82
2022/10/08 08:11:08;;;;;;;3.10;1.20;;;22.30;80.40;;;;;;5001272;28;20100;-82
2022/10/08 08:13:35;;;;;;;3.58;1.27;;;22.40;78.50;;;;;;5005964;28;20030;-81
2022/10/08 08:16:05;;;;;;;3.13;1.10;;;22.40;76.70;;;;;;4990746;28;20029;-82
2022/10/08 08:18:33;;;;;;;2.83;1.10;;;22.20;74.80;;;;;;4981522;28;21470;-81
2022/10/08 08:21:01;;;;;;;5.45;1.30;;;22.00;74.10;;;;;;5010923;28;20018;-82
2022/10/08 08:23:31;;;;;;;3.40;1.20;;;21.80;73.90;;;;;;4995140;28;20025;-82
2022/10/08 08:26:05;;;;;;;4.13;1.30;;;21.60;72.90;;;;;;5015029;28;20636;-82
2022/10/08 08:28:31;;;;;;;3.07;1.10;;;21.30;72.70;;;;;;5006569;28;20049;-82
2022/10/08 08:31:18;;;;;;;3.38;1.15;;;21.20;74.00;;;;;;4970415;28;20053;-80
2022/10/08 08:33:52;;;;;;;5.57;1.10;;;21.00;72.40;;;;;;5006263;28;20378;-81
2022/10/08 08:36:19;;;;;;;2.65;1.10;;;21.00;74.60;;;;;;5011488;28;20528;-82
2022/10/08 08:38:45;;;;;;;2.57;0.93;;;21.00;76.00;;;;;;5012467;28;20049;-81
2022/10/08 08:41:32;;;;;;;4.53;1.00;;;21.10;77.10;;;;;;5001554;28;20925;-81
2022/10/08 08:43:59;;;;;;;1.85;1.00;;;21.30;77.80;;;;;;4997733;28;20029;-82
2022/10/08 08:46:28;;;;;;;2.97;1.10;;;21.70;79.10;;;;;;5005599;28;20033;-82
2022/10/08 08:48:58;;;;;;;4.03;1.38;;;22.10;79.20;;;;;;5000296;28;20059;-82
2022/10/08 08:51:24;;;;;;;3.63;0.97;;;22.50;80.30;;;;;;5000889;28;20030;-81
2022/10/08 08:53:50;;;;;;;1.77;0.90;;;22.90;80.10;;;;;;5017520;28;20025;-81
2022/10/08 08:56:20;;;;;;;3.13;0.97;;;23.40;79.60;;;;;;5002143;28;20499;-80
2022/10/08 08:58:57;;;;;;;3.67;1.13;;;23.90;78.00;;;;;;5015179;28;20053;-81
2022/10/08 09:01:40;;;;;;;2.17;1.08;;;24.40;76.90;;;;;;5012599;28;20108;-81
2022/10/08 09:04:12;;;;;;;2.85;0.90;;;24.90;72.80;;;;;;4981769;28;20452;-82
2022/10/08 09:06:39;;;;;;;2.53;1.00;;;25.40;73.80;;;;;;5006633;28;20048;-82
2022/10/08 09:09:23;;;;;;;3.07;0.80;;;25.80;75.50;;;;;;4998809;28;20064;-82
2022/10/08 09:11:49;;;;;;;2.92;0.90;;;26.20;70.30;;;;;;4989300;28;20030;-81
2022/10/08 09:14:27;;;;;;;2.65;1.27;;;26.60;73.40;;;;;;5005955;28;20294;-82
2022/10/08 09:16:54;;;;;;;1.75;0.90;;;27.00;69.50;;;;;;5000452;28;20033;-81
2022/10/08 09:19:20;;;;;;;2.28;1.05;;;27.30;70.70;;;;;;4995489;28;20034;-82
2022/10/08 09:21:46;;;;;;;1.37;0.80;;;27.50;69.10;;;;;;5007970;28;20281;-81
2022/10/08 09:24:13;;;;;;;2.92;1.13;;;27.70;67.90;;;;;;4998077;28;20033;-81
2022/10/08 09:26:40;;;;;;;3.00;1.17;;;27.80;67.20;;;;;;4993470;28;20061;-81
2022/10/08 09:29:06;;;;;;;1.80;0.90;;;28.00;67.20;;;;;;4993315;28;20474;-80
2022/10/08 09:31:35;;;;;;;1.88;1.00;;;28.20;66.30;;;;;;4993396;28;20037;-81
2022/10/08 09:34:12;;;;;;;1.75;0.98;;;28.40;63.00;;;;;;5008548;28;20115;-81
2022/10/08 09:36:42;;;;;;;2.58;1.00;;;28.50;62.70;;;;;;5005327;28;20051;-81
2022/10/08 09:39:20;;;;;;;2.43;1.00;;;28.40;58.30;;;;;;4992288;28;20037;-81
2022/10/08 09:42:02;;;;;;;3.13;0.88;;;28.30;56.50;;;;;;5013908;28;20033;-81
2022/10/08 09:44:37;;;;;;;1.83;0.70;;;28.00;57.80;;;;;;5006923;28;20281;-81
2022/10/08 09:47:05;;;;;;;3.40;0.82;;;27.60;56.30;;;;;;4997998;28;20097;-82
2022/10/08 09:49:33;;;;;;;3.40;0.90;;;27.40;58.10;;;;;;4996875;28;20127;-81
2022/10/08 09:52:19;;;;;;;2.37;1.00;;;27.20;58.90;;;;;;5005532;28;20061;-81
2022/10/08 09:54:48;;;;;;;3.45;0.90;;;27.30;58.70;;;;;;4997805;28;20750;-82
2022/10/08 09:57:16;;;;;;;2.65;0.80;;;27.30;59.60;;;;;;4997286;28;20026;-81
2022/10/08 09:59:52;;;;;;;2.15;1.00;;;27.40;59.60;;;;;;5011287;28;20679;-81
2022/10/08 10:02:31;;;;;;;1.85;0.80;;;27.50;57.60;;;;;;5006589;28;20113;-82
2022/10/08 10:04:58;;;;;;;1.83;0.90;;;27.70;57.00;;;;;;4988495;28;20049;-81
2022/10/08 10:07:39;;;;;;;2.03;0.90;;;27.90;58.90;;;;;;5003541;28;20029;-81
2022/10/08 10:10:13;;;;;;;2.22;0.90;;;28.00;55.40;;;;;;5023715;28;20056;-82
2022/10/08 10:12:42;;;;;;;2.17;0.90;;;28.30;57.10;;;;;;5006372;28;20573;-81
2022/10/08 10:15:14;;;;;;;1.95;0.95;;;28.50;57.40;;;;;;5004728;28;20024;-81
2022/10/08 10:17:58;;;;;;;2.27;1.10;;;28.70;58.50;;;;;;4990712;28;20049;-81
2022/10/08 10:20:45;;;;;;;2.25;1.10;;;29.10;57.30;;;;;;5005521;28;20022;-81
2022/10/08 10:23:32;;;;;;;2.00;0.80;;;29.60;54.30;;;;;;5005246;28;20033;-81
2022/10/08 10:26:10;;;;;;;1.60;1.00;;;30.00;57.50;;;;;;4993274;28;20302;-81
2022/10/08 10:28:44;;;;;;;1.73;0.73;;;30.40;53.80;;;;;;5028657;28;20429;-81
2022/10/08 10:31:56;;;;;;;1.03;0.63;;;30.50;52.50;;;;;;5007281;28;20092;-81
2022/10/08 10:34:31;;;;;;;3.50;0.90;;;30.50;51.40;;;;;;4972530;28;20304;-81
2022/10/08 10:37:00;;;;;;;1.15;0.77;;;30.30;50.10;;;;;;4949664;28;20033;-82
2022/10/08 10:39:35;;;;;;;2.22;0.85;;;30.10;51.00;;;;;;4987795;28;20046;-81
2022/10/08 10:42:31;;;;;;;2.03;0.70;;;29.80;49.50;;;;;;4989831;28;20036;-81
2022/10/08 10:45:07;;;;;;;1.73;0.80;;;29.60;48.40;;;;;;5001678;28;20026;-81
2022/10/08 10:47:33;;;;;;;1.65;1.00;;;29.50;49.40;;;;;;5011707;28;20064;-81
2022/10/08 10:50:21;;;;;;;2.35;1.10;;;29.60;52.60;;;;;;5072371;27;20971;-80
2022/10/08 10:52:56;;;;;;;2.05;0.80;;;30.10;45.50;;;;;;5068985;28;20025;-80
2022/10/08 10:55:26;;;;;;;1.58;0.88;;;30.20;48.60;;;;;;5073314;28;20642;-80
2022/10/08 10:58:08;;;;;;;1.47;0.80;;;30.50;50.20;;;;;;5069966;28;20020;-81
2022/10/08 11:00:57;;;;;;;2.45;0.98;;;30.90;47.30;;;;;;5044693;28;20641;-81
2022/10/08 11:03:37;;;;;;;1.20;0.98;;;31.30;47.10;;;;;;5064232;28;21453;-81
2022/10/08 11:06:36;;;;;;;1.30;0.90;;;31.60;46.50;;;;;;5066936;28;20188;-80
2022/10/08 11:09:24;;;;;;;1.98;0.90;;;31.90;45.60;;;;;;5066903;28;21024;-81
2022/10/08 11:12:34;;;;;;;1.70;1.00;;;32.10;46.90;;;;;;5070210;28;20067;-79
2022/10/08 11:15:25;;;;;;;1.80;0.80;;;32.30;45.50;;;;;;5000945;28;20047;-81
2022/10/08 11:18:19;;;;;;;2.28;1.02;;;32.30;46.60;;;;;;5041542;28;20025;-81
2022/10/08 11:20:58;;;;;;;3.00;0.80;;;31.90;42.50;;;;;;5068721;28;20447;-81
2022/10/08 11:24:06;;;;;;;1.52;0.80;;;31.70;43.10;;;;;;5020334;28;20035;-79
2022/10/08 11:26:41;;;;;;;2.47;0.80;;;31.50;43.40;;;;;;5061800;28;20063;-81
2022/10/08 11:29:40;;;;;;;1.75;0.75;;;31.60;45.20;;;;;;5044448;28;20508;-80
2022/10/08 11:32:12;;;;;;;1.38;1.05;;;31.80;44.40;;;;;;5063639;28;20028;-81
2022/10/08 11:34:42;;;;;;;1.40;0.90;;;32.10;45.00;;;;;;5050467;28;20495;-81
2022/10/08 11:37:23;;;;;;;2.65;1.08;;;32.30;46.10;;;;;;5071117;28;20012;-82
2022/10/08 11:39:53;;;;;;;1.80;0.90;;;32.40;43.40;;;;;;5070998;28;20032;-82
2022/10/08 11:42:57;;;;;;;1.33;0.70;;;32.50;43.30;;;;;;5090712;28;20032;-81
2022/10/08 11:45:22;;;;;;;1.23;0.80;;;32.30;41.60;;;;;;5065947;28;20035;-81
2022/10/08 11:47:53;;;;;;;1.10;0.70;;;32.10;43.30;;;;;;5076829;28;20043;-82
2022/10/08 11:50:31;;;;;;;2.17;0.70;;;31.90;41.80;;;;;;5073622;28;20036;-81
2022/10/08 11:53:19;;;;;;;2.30;0.73;;;31.70;41.10;;;;;;5078351;28;20029;-82
2022/10/08 11:55:52;;;;;;;1.98;0.68;;;31.40;39.50;;;;;;5089296;27;20050;-81
2022/10/08 11:58:32;;;;;;;1.17;0.60;;;31.00;40.20;;;;;;5084276;28;20434;-80
2022/10/08 12:01:16;;;;;;;1.10;0.70;;;30.50;40.20;;;;;;5067207;28;20097;-81
2022/10/08 12:03:42;;;;;;;1.67;0.73;;;30.30;40.70;;;;;;5048799;28;20164;-82
2022/10/08 12:06:22;;;;;;;1.30;0.50;;;30.00;42.00;;;;;;5047720;28;20035;-80
2022/10/08 12:08:51;;;;;;;2.00;0.80;;;29.70;40.60;;;;;;5060025;28;20035;-83
2022/10/08 12:11:37;;;;;;;0.93;0.60;;;29.50;41.90;;;;;;5060682;28;20039;-81
2022/10/08 12:14:29;;;;;;;1.97;0.60;;;29.30;40.60;;;;;;5064178;28;20036;-80
2022/10/08 12:16:55;;;;;;;0.98;0.60;;;29.10;40.40;;;;;;5061476;28;20064;-80
2022/10/08 12:19:33;;;;;;;1.98;0.80;;;28.90;42.40;;;;;;5051578;28;20127;-81
2022/10/08 12:22:15;;;;;;;1.40;0.70;;;28.90;41.70;;;;;;5062186;28;20054;-81
2022/10/08 12:24:43;;;;;;;0.93;0.73;;;29.00;43.90;;;;;;5043107;28;20819;-81
2022/10/08 12:27:15;;;;;;;1.03;0.90;;;29.20;43.70;;;;;;5059016;28;20013;-80
2022/10/08 12:29:58;;;;;;;1.50;0.75;;;29.40;42.40;;;;;;5060978;28;20164;-82
2022/10/08 12:32:26;;;;;;;1.38;0.70;;;29.40;40.60;;;;;;5059843;28;20403;-80
2022/10/08 12:34:53;;;;;;;2.63;0.70;;;29.50;42.60;;;;;;5079011;28;20047;-81
2022/10/08 12:37:43;;;;;;;1.25;0.68;;;29.60;43.10;;;;;;5057342;28;20055;-81
2022/10/08 12:40:23;;;;;;;1.53;0.90;;;29.80;41.60;;;;;;5059195;28;20036;-79
2022/10/08 12:42:53;;;;;;;1.42;0.70;;;30.10;42.00;;;;;;5044132;28;20078;-81
2022/10/08 12:45:27;;;;;;;2.25;0.73;;;30.40;43.40;;;;;;5069671;28;20537;-81
2022/10/08 12:48:02;;;;;;;1.88;1.00;;;30.80;42.10;;;;;;5059990;28;20757;-80
2022/10/08 12:50:56;;;;;;;2.08;0.70;;;31.00;41.60;;;;;;5069120;28;20108;-80
2022/10/08 12:53:22;;;;;;;1.73;0.97;;;31.30;40.20;;;;;;5041497;28;20032;-81
2022/10/08 12:55:53;;;;;;;1.08;0.80;;;31.50;42.10;;;;;;5034626;28;23813;-80
2022/10/08 12:58:22;;;;;;;1.75;0.80;;;31.70;41.30;;;;;;5072028;28;20031;-79
2022/10/08 13:00:58;;;;;;;1.02;0.80;;;31.90;41.60;;;;;;5061164;28;20209;-81
2022/10/08 13:03:24;;;;;;;1.63;0.80;;;32.20;39.20;;;;;;5050973;28;20090;-80
2022/10/08 13:05:54;;;;;;;1.73;0.95;;;32.40;40.80;;;;;;5061608;28;21564;-81
2022/10/08 13:08:37;;;;;;;1.48;1.02;;;32.40;39.30;;;;;;5043366;28;20059;-80
2022/10/08 13:11:12;;;;;;;1.92;0.80;;;32.50;36.90;;;;;;5073883;28;20039;-82
2022/10/08 13:13:38;;;;;;;1.52;0.80;;;32.40;36.70;;;;;;5054217;28;20127;-79